sensor_id;sensor_type;location;lat;lon;timestamp;temperature;humidity
40952;DHT22;26682;51.660;19.338;2023-01-19T00:00:19;1.80;99.90
40952;DHT22;26682;51.660;19.338;2023-01-19T00:02:27;1.80;99.90
40952;DHT22;26682;51.660;19.338;2023-01-19T00:04:15;1.80;99.90
40952;DHT22;26682;51.660;19.338;2023-01-19T00:06:04;1.80;99.90
40952;DHT22;26682;51.660;19.338;2023-01-19T00:07:52;1.80;99.90
40952;DHT22;26682;51.660;19.338;2023-01-19T00:09:40;1.80;99.90
40952;DHT22;26682;51.660;19.338;2023-01-19T00:11:27;1.90;99.90
40952;DHT22;26682;51.660;19.338;2023-01-19T00:13:15;1.90;99.90
40952;DHT22;26682;51.660;19.338;2023-01-19T00:15:04;1.90;99.90
40952;DHT22;26682;51.660;19.338;2023-01-19T00:16:52;1.80;99.90
40952;DHT22;26682;51.660;19.338;2023-01-19T00:18:39;1.90;99.90
40952;DHT22;26682;51.660;19.338;2023-01-19T00:20:27;1.90;99.90
40952;DHT22;26682;51.660;19.338;2023-01-19T00:22:16;1.90;99.90
40952;DHT22;26682;51.660;19.338;2023-01-19T00:24:04;1.90;99.90
40952;DHT22;26682;51.660;19.338;2023-01-19T00:25:52;1.90;99.90
40952;DHT22;26682;51.660;19.338;2023-01-19T00:27:40;1.90;99.90
40952;DHT22;26682;51.660;19.338;2023-01-19T00:29:27;1.90;99.90
40952;DHT22;26682;51.660;19.338;2023-01-19T00:31:17;1.90;99.90
40952;DHT22;26682;51.660;19.338;2023-01-19T00:33:08;1.90;99.90
40952;DHT22;26682;51.660;19.338;2023-01-19T00:34:56;1.90;99.90
40952;DHT22;26682;51.660;19.338;2023-01-19T00:36:43;1.90;99.90
40952;DHT22;26682;51.660;19.338;2023-01-19T00:38:30;1.90;99.90
40952;DHT22;26682;51.660;19.338;2023-01-19T00:40:18;1.90;99.90
40952;DHT22;26682;51.660;19.338;2023-01-19T00:42:07;1.90;99.90
40952;DHT22;26682;51.660;19.338;2023-01-19T00:44:13;1.90;99.90
40952;DHT22;26682;51.660;19.338;2023-01-19T00:46:00;1.90;99.90
40952;DHT22;26682;51.660;19.338;2023-01-19T00:47:49;1.90;99.90
40952;DHT22;26682;51.660;19.338;2023-01-19T00:49:43;1.90;99.90
40952;DHT22;26682;51.660;19.338;2023-01-19T00:51:31;1.90;99.90
40952;DHT22;26682;51.660;19.338;2023-01-19T00:53:19;2.00;99.90
40952;DHT22;26682;51.660;19.338;2023-01-19T00:55:07;2.00;99.90
40952;DHT22;26682;51.660;19.338;2023-01-19T00:56:55;2.00;99.90
40952;DHT22;26682;51.660;19.338;2023-01-19T00:58:43;2.00;99.90
40952;DHT22;26682;51.660;19.338;2023-01-19T01:00:31;1.90;99.90
40952;DHT22;26682;51.660;19.338;2023-01-19T01:02:18;2.00;99.90
40952;DHT22;26682;51.660;19.338;2023-01-19T01:04:08;2.00;99.90
40952;DHT22;26682;51.660;19.338;2023-01-19T01:05:58;2.00;99.90
40952;DHT22;26682;51.660;19.338;2023-01-19T01:07:46;2.00;99.90
40952;DHT22;26682;51.660;19.338;2023-01-19T01:09:35;2.00;99.90
40952;DHT22;26682;51.660;19.338;2023-01-19T01:11:22;2.00;99.90
40952;DHT22;26682;51.660;19.338;2023-01-19T01:13:10;2.00;99.90
40952;DHT22;26682;51.660;19.338;2023-01-19T01:15:09;1.90;99.90
40952;DHT22;26682;51.660;19.338;2023-01-19T01:16:58;2.00;99.90
40952;DHT22;26682;51.660;19.338;2023-01-19T01:18:46;1.90;99.90
40952;DHT22;26682;51.660;19.338;2023-01-19T01:20:34;1.90;99.90
40952;DHT22;26682;51.660;19.338;2023-01-19T01:22:23;1.90;99.90
40952;DHT22;26682;51.660;19.338;2023-01-19T01:24:11;1.90;99.90
40952;DHT22;26682;51.660;19.338;2023-01-19T01:25:59;1.90;99.90
40952;DHT22;26682;51.660;19.338;2023-01-19T01:27:46;1.90;99.90
40952;DHT22;26682;51.660;19.338;2023-01-19T01:29:34;1.90;99.90
40952;DHT22;26682;51.660;19.338;2023-01-19T01:31:21;1.90;99.90
40952;DHT22;26682;51.660;19.338;2023-01-19T01:33:09;1.90;99.90
40952;DHT22;26682;51.660;19.338;2023-01-19T01:34:58;1.90;99.90
40952;DHT22;26682;51.660;19.338;2023-01-19T01:36:45;1.90;99.90
40952;DHT22;26682;51.660;19.338;2023-01-19T01:38:32;1.90;99.90
40952;DHT22;26682;51.660;19.338;2023-01-19T01:40:20;1.90;99.90
40952;DHT22;26682;51.660;19.338;2023-01-19T01:42:16;1.90;99.90
40952;DHT22;26682;51.660;19.338;2023-01-19T01:46:36;1.80;99.90
40952;DHT22;26682;51.660;19.338;2023-01-19T01:48:26;1.80;99.90
40952;DHT22;26682;51.660;19.338;2023-01-19T01:50:22;1.80;99.90
40952;DHT22;26682;51.660;19.338;2023-01-19T01:52:11;1.80;99.90
40952;DHT22;26682;51.660;19.338;2023-01-19T01:54:05;1.70;99.90
40952;DHT22;26682;51.660;19.338;2023-01-19T01:55:54;1.70;99.90
40952;DHT22;26682;51.660;19.338;2023-01-19T01:57:45;1.70;99.90
40952;DHT22;26682;51.660;19.338;2023-01-19T01:59:38;1.70;99.90
40952;DHT22;26682;51.660;19.338;2023-01-19T02:01:26;1.60;99.90
40952;DHT22;26682;51.660;19.338;2023-01-19T02:03:33;1.60;99.90
40952;DHT22;26682;51.660;19.338;2023-01-19T02:05:26;1.60;99.90
40952;DHT22;26682;51.660;19.338;2023-01-19T02:07:21;1.50;99.90
40952;DHT22;26682;51.660;19.338;2023-01-19T02:09:33;1.50;99.90
40952;DHT22;26682;51.660;19.338;2023-01-19T02:11:40;1.50;99.90
40952;DHT22;26682;51.660;19.338;2023-01-19T02:13:47;1.40;99.90
40952;DHT22;26682;51.660;19.338;2023-01-19T02:15:35;1.40;99.90
40952;DHT22;26682;51.660;19.338;2023-01-19T02:17:22;1.40;99.90
40952;DHT22;26682;51.660;19.338;2023-01-19T02:19:20;1.40;99.90
40952;DHT22;26682;51.660;19.338;2023-01-19T02:21:25;1.40;99.90
40952;DHT22;26682;51.660;19.338;2023-01-19T02:23:25;1.30;99.90
40952;DHT22;26682;51.660;19.338;2023-01-19T02:25:14;1.30;99.90
40952;DHT22;26682;51.660;19.338;2023-01-19T02:27:02;1.20;99.90
40952;DHT22;26682;51.660;19.338;2023-01-19T02:28:57;1.10;99.90
40952;DHT22;26682;51.660;19.338;2023-01-19T02:30:44;1.10;99.90
40952;DHT22;26682;51.660;19.338;2023-01-19T02:32:32;1.00;99.90
40952;DHT22;26682;51.660;19.338;2023-01-19T02:34:20;0.90;99.90
40952;DHT22;26682;51.660;19.338;2023-01-19T02:36:10;0.90;99.90
40952;DHT22;26682;51.660;19.338;2023-01-19T02:38:01;0.80;99.90
40952;DHT22;26682;51.660;19.338;2023-01-19T02:39:55;0.80;99.90
40952;DHT22;26682;51.660;19.338;2023-01-19T02:41:46;0.80;99.90
40952;DHT22;26682;51.660;19.338;2023-01-19T02:43:37;0.70;99.90
40952;DHT22;26682;51.660;19.338;2023-01-19T02:45:26;0.70;99.90
40952;DHT22;26682;51.660;19.338;2023-01-19T02:47:13;0.60;99.90
40952;DHT22;26682;51.660;19.338;2023-01-19T02:49:01;0.50;99.90
40952;DHT22;26682;51.660;19.338;2023-01-19T02:50:52;0.50;99.90
40952;DHT22;26682;51.660;19.338;2023-01-19T02:52:44;0.50;99.90
40952;DHT22;26682;51.660;19.338;2023-01-19T02:59:20;0.40;99.90
40952;DHT22;26682;51.660;19.338;2023-01-19T03:07:11;0.20;99.90
40952;DHT22;26682;51.660;19.338;2023-01-19T03:09:07;0.20;99.90
40952;DHT22;26682;51.660;19.338;2023-01-19T03:11:05;0.10;99.90
40952;DHT22;26682;51.660;19.338;2023-01-19T03:13:09;0.10;99.90
40952;DHT22;26682;51.660;19.338;2023-01-19T03:15:00;0.10;99.90
40952;DHT22;26682;51.660;19.338;2023-01-19T03:16:53;0.00;99.90
40952;DHT22;26682;51.660;19.338;2023-01-19T03:18:46;0.00;99.90
40952;DHT22;26682;51.660;19.338;2023-01-19T03:20:35;0.00;99.90
40952;DHT22;26682;51.660;19.338;2023-01-19T03:22:26;0.10;99.90
40952;DHT22;26682;51.660;19.338;2023-01-19T03:24:17;0.10;99.90
40952;DHT22;26682;51.660;19.338;2023-01-19T03:26:08;0.10;99.90
40952;DHT22;26682;51.660;19.338;2023-01-19T03:27:56;0.10;99.90
40952;DHT22;26682;51.660;19.338;2023-01-19T03:29:49;0.10;99.90
40952;DHT22;26682;51.660;19.338;2023-01-19T03:31:39;0.10;99.90
40952;DHT22;26682;51.660;19.338;2023-01-19T03:33:38;0.10;99.90
40952;DHT22;26682;51.660;19.338;2023-01-19T03:35:30;0.00;99.90
40952;DHT22;26682;51.660;19.338;2023-01-19T03:37:19;0.00;99.90
40952;DHT22;26682;51.660;19.338;2023-01-19T03:39:08;0.00;99.90
40952;DHT22;26682;51.660;19.338;2023-01-19T03:41:00;0.00;99.90
40952;DHT22;26682;51.660;19.338;2023-01-19T03:42:49;0.00;99.90
40952;DHT22;26682;51.660;19.338;2023-01-19T03:44:37;0.00;99.90
40952;DHT22;26682;51.660;19.338;2023-01-19T03:46:27;0.10;99.90
40952;DHT22;26682;51.660;19.338;2023-01-19T03:48:15;0.20;99.90
40952;DHT22;26682;51.660;19.338;2023-01-19T03:50:05;0.20;99.90
40952;DHT22;26682;51.660;19.338;2023-01-19T03:51:55;0.20;99.90
40952;DHT22;26682;51.660;19.338;2023-01-19T03:53:45;0.20;99.90
40952;DHT22;26682;51.660;19.338;2023-01-19T03:55:34;0.20;99.90
40952;DHT22;26682;51.660;19.338;2023-01-19T03:57:22;0.30;99.90
40952;DHT22;26682;51.660;19.338;2023-01-19T03:59:10;0.20;99.90
40952;DHT22;26682;51.660;19.338;2023-01-19T04:00:57;0.30;99.90
40952;DHT22;26682;51.660;19.338;2023-01-19T04:02:45;0.20;99.90
40952;DHT22;26682;51.660;19.338;2023-01-19T04:04:33;0.30;99.90
40952;DHT22;26682;51.660;19.338;2023-01-19T04:06:20;0.20;99.90
40952;DHT22;26682;51.660;19.338;2023-01-19T04:08:08;0.30;99.90
40952;DHT22;26682;51.660;19.338;2023-01-19T04:09:56;0.20;99.90
40952;DHT22;26682;51.660;19.338;2023-01-19T04:11:43;0.30;99.90
40952;DHT22;26682;51.660;19.338;2023-01-19T04:13:31;0.30;99.90
40952;DHT22;26682;51.660;19.338;2023-01-19T04:15:18;0.20;99.90
40952;DHT22;26682;51.660;19.338;2023-01-19T04:17:06;0.20;99.90
40952;DHT22;26682;51.660;19.338;2023-01-19T04:18:54;0.20;99.90
40952;DHT22;26682;51.660;19.338;2023-01-19T04:20:41;0.20;99.90
40952;DHT22;26682;51.660;19.338;2023-01-19T04:22:29;0.20;99.90
40952;DHT22;26682;51.660;19.338;2023-01-19T04:24:17;0.10;99.90
40952;DHT22;26682;51.660;19.338;2023-01-19T04:26:05;0.10;99.90
40952;DHT22;26682;51.660;19.338;2023-01-19T04:27:53;0.10;99.90
40952;DHT22;26682;51.660;19.338;2023-01-19T04:29:41;0.10;99.90
40952;DHT22;26682;51.660;19.338;2023-01-19T04:31:29;0.10;99.90
40952;DHT22;26682;51.660;19.338;2023-01-19T04:33:18;0.10;99.90
40952;DHT22;26682;51.660;19.338;2023-01-19T04:35:06;0.20;99.90
40952;DHT22;26682;51.660;19.338;2023-01-19T04:36:53;0.10;99.90
40952;DHT22;26682;51.660;19.338;2023-01-19T04:38:41;0.20;99.90
40952;DHT22;26682;51.660;19.338;2023-01-19T04:40:29;0.20;99.90
40952;DHT22;26682;51.660;19.338;2023-01-19T04:42:17;0.20;99.90
40952;DHT22;26682;51.660;19.338;2023-01-19T04:44:04;0.20;99.90
40952;DHT22;26682;51.660;19.338;2023-01-19T04:45:52;0.30;99.90
40952;DHT22;26682;51.660;19.338;2023-01-19T04:47:40;0.30;99.90
40952;DHT22;26682;51.660;19.338;2023-01-19T04:49:28;0.30;99.90
40952;DHT22;26682;51.660;19.338;2023-01-19T04:51:16;0.30;99.90
40952;DHT22;26682;51.660;19.338;2023-01-19T04:53:03;0.40;99.90
40952;DHT22;26682;51.660;19.338;2023-01-19T04:54:51;0.40;99.90
40952;DHT22;26682;51.660;19.338;2023-01-19T04:56:39;0.50;99.90
40952;DHT22;26682;51.660;19.338;2023-01-19T04:58:26;0.50;99.90
40952;DHT22;26682;51.660;19.338;2023-01-19T05:00:14;0.50;99.90
40952;DHT22;26682;51.660;19.338;2023-01-19T05:02:02;0.50;99.90
40952;DHT22;26682;51.660;19.338;2023-01-19T05:03:49;0.50;99.90
40952;DHT22;26682;51.660;19.338;2023-01-19T05:05:37;0.50;99.90
40952;DHT22;26682;51.660;19.338;2023-01-19T05:07:24;0.50;99.90
40952;DHT22;26682;51.660;19.338;2023-01-19T05:09:11;0.60;99.90
40952;DHT22;26682;51.660;19.338;2023-01-19T05:11:01;0.60;99.90
40952;DHT22;26682;51.660;19.338;2023-01-19T05:12:49;0.60;99.90
40952;DHT22;26682;51.660;19.338;2023-01-19T05:14:37;0.60;99.90
40952;DHT22;26682;51.660;19.338;2023-01-19T05:16:24;0.60;99.90
40952;DHT22;26682;51.660;19.338;2023-01-19T05:18:12;0.60;99.90
40952;DHT22;26682;51.660;19.338;2023-01-19T05:19:59;0.60;99.90
40952;DHT22;26682;51.660;19.338;2023-01-19T05:21:47;0.60;99.90
40952;DHT22;26682;51.660;19.338;2023-01-19T05:23:35;0.60;99.90
40952;DHT22;26682;51.660;19.338;2023-01-19T05:25:22;0.60;99.90
40952;DHT22;26682;51.660;19.338;2023-01-19T05:27:10;0.60;99.90
40952;DHT22;26682;51.660;19.338;2023-01-19T05:28:58;0.60;99.90
40952;DHT22;26682;51.660;19.338;2023-01-19T05:30:45;0.60;99.90
40952;DHT22;26682;51.660;19.338;2023-01-19T05:32:33;0.70;99.90
40952;DHT22;26682;51.660;19.338;2023-01-19T05:34:20;0.60;99.90
40952;DHT22;26682;51.660;19.338;2023-01-19T05:36:08;0.70;99.90
40952;DHT22;26682;51.660;19.338;2023-01-19T05:37:56;0.70;99.90
40952;DHT22;26682;51.660;19.338;2023-01-19T05:39:44;0.70;99.90
40952;DHT22;26682;51.660;19.338;2023-01-19T05:41:31;0.70;99.90
40952;DHT22;26682;51.660;19.338;2023-01-19T05:43:19;0.70;99.90
40952;DHT22;26682;51.660;19.338;2023-01-19T05:45:07;0.70;99.90
40952;DHT22;26682;51.660;19.338;2023-01-19T05:46:56;0.70;99.90
40952;DHT22;26682;51.660;19.338;2023-01-19T05:48:45;0.70;99.90
40952;DHT22;26682;51.660;19.338;2023-01-19T05:50:33;0.70;99.90
40952;DHT22;26682;51.660;19.338;2023-01-19T05:52:21;0.70;99.90
40952;DHT22;26682;51.660;19.338;2023-01-19T05:54:13;0.80;99.90
40952;DHT22;26682;51.660;19.338;2023-01-19T05:56:06;0.80;99.90
40952;DHT22;26682;51.660;19.338;2023-01-19T05:57:57;0.80;99.90
40952;DHT22;26682;51.660;19.338;2023-01-19T05:59:44;0.80;99.90
40952;DHT22;26682;51.660;19.338;2023-01-19T06:01:33;0.80;99.90
40952;DHT22;26682;51.660;19.338;2023-01-19T06:03:26;0.80;99.90
40952;DHT22;26682;51.660;19.338;2023-01-19T06:05:13;0.80;99.90
40952;DHT22;26682;51.660;19.338;2023-01-19T06:07:01;0.80;99.90
40952;DHT22;26682;51.660;19.338;2023-01-19T06:08:49;0.80;99.90
40952;DHT22;26682;51.660;19.338;2023-01-19T06:10:36;0.90;99.90
40952;DHT22;26682;51.660;19.338;2023-01-19T06:12:24;0.90;99.90
40952;DHT22;26682;51.660;19.338;2023-01-19T06:14:12;0.90;99.90
40952;DHT22;26682;51.660;19.338;2023-01-19T06:16:01;0.90;99.90
40952;DHT22;26682;51.660;19.338;2023-01-19T06:17:48;1.00;99.90
40952;DHT22;26682;51.660;19.338;2023-01-19T06:19:36;1.10;99.90
40952;DHT22;26682;51.660;19.338;2023-01-19T06:21:23;1.10;99.90
40952;DHT22;26682;51.660;19.338;2023-01-19T06:23:11;1.10;99.90
40952;DHT22;26682;51.660;19.338;2023-01-19T06:24:58;1.00;99.90
40952;DHT22;26682;51.660;19.338;2023-01-19T06:26:46;1.00;99.90
40952;DHT22;26682;51.660;19.338;2023-01-19T06:28:33;1.00;99.90
40952;DHT22;26682;51.660;19.338;2023-01-19T06:30:21;1.00;99.90
40952;DHT22;26682;51.660;19.338;2023-01-19T06:32:08;1.00;99.90
40952;DHT22;26682;51.660;19.338;2023-01-19T06:33:56;1.00;99.90
40952;DHT22;26682;51.660;19.338;2023-01-19T06:35:44;1.00;99.90
40952;DHT22;26682;51.660;19.338;2023-01-19T06:37:32;1.10;99.90
40952;DHT22;26682;51.660;19.338;2023-01-19T06:39:19;1.10;99.90
40952;DHT22;26682;51.660;19.338;2023-01-19T06:41:07;1.10;99.90
40952;DHT22;26682;51.660;19.338;2023-01-19T06:42:54;1.10;99.90
40952;DHT22;26682;51.660;19.338;2023-01-19T06:44:41;1.10;99.90
40952;DHT22;26682;51.660;19.338;2023-01-19T06:46:33;1.10;99.90
40952;DHT22;26682;51.660;19.338;2023-01-19T06:48:22;1.10;99.90
40952;DHT22;26682;51.660;19.338;2023-01-19T06:50:10;1.10;99.90
40952;DHT22;26682;51.660;19.338;2023-01-19T06:51:57;1.10;99.90
40952;DHT22;26682;51.660;19.338;2023-01-19T06:53:44;1.00;99.90
40952;DHT22;26682;51.660;19.338;2023-01-19T06:55:32;1.00;99.90
40952;DHT22;26682;51.660;19.338;2023-01-19T06:57:22;1.00;99.90
40952;DHT22;26682;51.660;19.338;2023-01-19T06:59:12;1.00;99.90
40952;DHT22;26682;51.660;19.338;2023-01-19T07:01:01;1.00;99.90
40952;DHT22;26682;51.660;19.338;2023-01-19T07:02:49;1.10;99.90
40952;DHT22;26682;51.660;19.338;2023-01-19T07:04:36;1.10;99.90
40952;DHT22;26682;51.660;19.338;2023-01-19T07:06:24;1.10;99.90
40952;DHT22;26682;51.660;19.338;2023-01-19T07:08:12;1.10;99.90
40952;DHT22;26682;51.660;19.338;2023-01-19T07:10:01;1.10;99.90
40952;DHT22;26682;51.660;19.338;2023-01-19T07:11:52;1.00;99.90
40952;DHT22;26682;51.660;19.338;2023-01-19T07:13:40;1.00;99.90
40952;DHT22;26682;51.660;19.338;2023-01-19T07:15:30;1.00;99.90
40952;DHT22;26682;51.660;19.338;2023-01-19T07:17:18;1.10;99.90
40952;DHT22;26682;51.660;19.338;2023-01-19T07:19:06;1.00;99.90
40952;DHT22;26682;51.660;19.338;2023-01-19T07:20:57;1.00;99.90
40952;DHT22;26682;51.660;19.338;2023-01-19T07:22:45;1.00;99.90
40952;DHT22;26682;51.660;19.338;2023-01-19T07:24:32;1.00;99.90
40952;DHT22;26682;51.660;19.338;2023-01-19T07:26:21;1.10;99.90
40952;DHT22;26682;51.660;19.338;2023-01-19T07:28:11;1.10;99.90
40952;DHT22;26682;51.660;19.338;2023-01-19T07:30:02;1.10;99.90
40952;DHT22;26682;51.660;19.338;2023-01-19T07:31:50;1.10;99.90
40952;DHT22;26682;51.660;19.338;2023-01-19T07:33:41;1.10;99.90
40952;DHT22;26682;51.660;19.338;2023-01-19T07:35:28;1.10;99.90
40952;DHT22;26682;51.660;19.338;2023-01-19T07:37:20;1.10;99.90
40952;DHT22;26682;51.660;19.338;2023-01-19T07:39:08;1.10;99.90
40952;DHT22;26682;51.660;19.338;2023-01-19T07:41:00;1.10;99.90
40952;DHT22;26682;51.660;19.338;2023-01-19T07:42:48;1.10;99.90
40952;DHT22;26682;51.660;19.338;2023-01-19T07:44:36;1.10;99.90
40952;DHT22;26682;51.660;19.338;2023-01-19T07:46:24;1.10;99.90
40952;DHT22;26682;51.660;19.338;2023-01-19T07:48:14;1.10;99.90
40952;DHT22;26682;51.660;19.338;2023-01-19T07:50:02;1.10;99.90
40952;DHT22;26682;51.660;19.338;2023-01-19T07:51:49;1.10;99.90
40952;DHT22;26682;51.660;19.338;2023-01-19T07:53:37;1.10;99.90
40952;DHT22;26682;51.660;19.338;2023-01-19T07:55:26;1.00;99.90
40952;DHT22;26682;51.660;19.338;2023-01-19T07:57:13;1.10;99.90
40952;DHT22;26682;51.660;19.338;2023-01-19T07:59:01;1.10;99.90
40952;DHT22;26682;51.660;19.338;2023-01-19T08:00:49;1.10;99.90
40952;DHT22;26682;51.660;19.338;2023-01-19T08:02:37;1.10;99.90
40952;DHT22;26682;51.660;19.338;2023-01-19T08:04:28;1.10;99.90
40952;DHT22;26682;51.660;19.338;2023-01-19T08:06:20;1.10;99.90
40952;DHT22;26682;51.660;19.338;2023-01-19T08:08:08;1.00;99.90
40952;DHT22;26682;51.660;19.338;2023-01-19T08:09:57;1.10;99.90
40952;DHT22;26682;51.660;19.338;2023-01-19T08:11:45;1.00;99.90
40952;DHT22;26682;51.660;19.338;2023-01-19T08:13:33;1.10;99.90
40952;DHT22;26682;51.660;19.338;2023-01-19T08:15:21;1.00;99.90
40952;DHT22;26682;51.660;19.338;2023-01-19T08:17:12;1.00;99.90
40952;DHT22;26682;51.660;19.338;2023-01-19T08:19:00;1.00;99.90
40952;DHT22;26682;51.660;19.338;2023-01-19T08:20:47;1.10;99.90
40952;DHT22;26682;51.660;19.338;2023-01-19T08:22:35;1.10;99.90
40952;DHT22;26682;51.660;19.338;2023-01-19T08:24:23;1.10;99.90
40952;DHT22;26682;51.660;19.338;2023-01-19T08:26:27;1.10;99.90
40952;DHT22;26682;51.660;19.338;2023-01-19T08:28:16;1.10;99.90
40952;DHT22;26682;51.660;19.338;2023-01-19T08:30:04;1.20;99.90
40952;DHT22;26682;51.660;19.338;2023-01-19T08:31:52;1.10;99.90
40952;DHT22;26682;51.660;19.338;2023-01-19T08:33:42;1.10;99.90
40952;DHT22;26682;51.660;19.338;2023-01-19T08:35:30;1.10;99.90
40952;DHT22;26682;51.660;19.338;2023-01-19T08:37:18;1.10;99.90
40952;DHT22;26682;51.660;19.338;2023-01-19T08:39:06;1.10;99.90
40952;DHT22;26682;51.660;19.338;2023-01-19T08:40:53;1.20;99.90
40952;DHT22;26682;51.660;19.338;2023-01-19T08:42:41;1.20;99.90
40952;DHT22;26682;51.660;19.338;2023-01-19T08:44:29;1.20;99.90
40952;DHT22;26682;51.660;19.338;2023-01-19T08:46:17;1.20;99.90
40952;DHT22;26682;51.660;19.338;2023-01-19T08:48:07;1.20;99.90
40952;DHT22;26682;51.660;19.338;2023-01-19T08:49:56;1.30;99.90
40952;DHT22;26682;51.660;19.338;2023-01-19T08:51:43;1.30;99.90
40952;DHT22;26682;51.660;19.338;2023-01-19T08:53:33;1.30;99.90
40952;DHT22;26682;51.660;19.338;2023-01-19T08:55:21;1.30;99.90
40952;DHT22;26682;51.660;19.338;2023-01-19T08:57:09;1.30;99.90
40952;DHT22;26682;51.660;19.338;2023-01-19T08:59:00;1.30;99.90
40952;DHT22;26682;51.660;19.338;2023-01-19T09:01:08;1.40;99.90
40952;DHT22;26682;51.660;19.338;2023-01-19T09:02:57;1.40;99.90
40952;DHT22;26682;51.660;19.338;2023-01-19T09:04:47;1.40;99.90
40952;DHT22;26682;51.660;19.338;2023-01-19T09:06:39;1.40;99.90
40952;DHT22;26682;51.660;19.338;2023-01-19T09:08:31;1.50;99.90
40952;DHT22;26682;51.660;19.338;2023-01-19T09:10:19;1.50;99.90
40952;DHT22;26682;51.660;19.338;2023-01-19T09:12:07;1.40;99.90
40952;DHT22;26682;51.660;19.338;2023-01-19T09:13:55;1.50;99.90
40952;DHT22;26682;51.660;19.338;2023-01-19T09:15:42;1.60;99.90
40952;DHT22;26682;51.660;19.338;2023-01-19T09:17:30;1.60;99.90
40952;DHT22;26682;51.660;19.338;2023-01-19T09:19:18;1.60;99.90
40952;DHT22;26682;51.660;19.338;2023-01-19T09:21:05;1.60;99.90
40952;DHT22;26682;51.660;19.338;2023-01-19T09:22:58;1.60;99.90
40952;DHT22;26682;51.660;19.338;2023-01-19T09:24:46;1.60;99.90
40952;DHT22;26682;51.660;19.338;2023-01-19T09:26:34;1.60;99.90
40952;DHT22;26682;51.660;19.338;2023-01-19T09:28:23;1.60;99.90
40952;DHT22;26682;51.660;19.338;2023-01-19T09:30:12;1.60;99.90
40952;DHT22;26682;51.660;19.338;2023-01-19T09:32:01;1.60;99.90
40952;DHT22;26682;51.660;19.338;2023-01-19T09:33:48;1.60;99.90
40952;DHT22;26682;51.660;19.338;2023-01-19T09:35:38;1.60;99.90
40952;DHT22;26682;51.660;19.338;2023-01-19T09:37:26;1.60;99.90
40952;DHT22;26682;51.660;19.338;2023-01-19T09:39:14;1.60;99.90
40952;DHT22;26682;51.660;19.338;2023-01-19T09:41:02;1.50;99.90
40952;DHT22;26682;51.660;19.338;2023-01-19T09:44:43;1.60;99.90
40952;DHT22;26682;51.660;19.338;2023-01-19T09:46:41;1.60;99.90
40952;DHT22;26682;51.660;19.338;2023-01-19T09:48:38;1.60;99.90
40952;DHT22;26682;51.660;19.338;2023-01-19T09:50:34;1.60;99.90
40952;DHT22;26682;51.660;19.338;2023-01-19T09:52:24;1.60;99.90
40952;DHT22;26682;51.660;19.338;2023-01-19T09:54:17;1.60;99.90
40952;DHT22;26682;51.660;19.338;2023-01-19T09:56:11;1.60;99.90
40952;DHT22;26682;51.660;19.338;2023-01-19T09:58:00;1.60;99.90
40952;DHT22;26682;51.660;19.338;2023-01-19T09:59:49;1.60;99.90
40952;DHT22;26682;51.660;19.338;2023-01-19T10:03:49;1.70;99.90
40952;DHT22;26682;51.660;19.338;2023-01-19T10:05:50;1.70;99.90
40952;DHT22;26682;51.660;19.338;2023-01-19T10:09:56;1.70;99.90
40952;DHT22;26682;51.660;19.338;2023-01-19T10:12:20;1.60;99.90
40952;DHT22;26682;51.660;19.338;2023-01-19T10:14:27;1.60;97.40
40952;DHT22;26682;51.660;19.338;2023-01-19T10:18:45;1.70;95.30
40952;DHT22;26682;51.660;19.338;2023-01-19T10:20:38;1.70;99.30
40952;DHT22;26682;51.660;19.338;2023-01-19T10:22:27;1.70;96.80
40952;DHT22;26682;51.660;19.338;2023-01-19T10:24:37;1.70;93.30
40952;DHT22;26682;51.660;19.338;2023-01-19T10:26:36;1.70;95.90
40952;DHT22;26682;51.660;19.338;2023-01-19T10:28:25;1.70;91.90
40952;DHT22;26682;51.660;19.338;2023-01-19T10:30:22;1.70;75.10
40952;DHT22;26682;51.660;19.338;2023-01-19T10:32:21;1.70;87.10
40952;DHT22;26682;51.660;19.338;2023-01-19T10:34:12;1.70;69.10
40952;DHT22;26682;51.660;19.338;2023-01-19T10:36:35;1.70;74.10
40952;DHT22;26682;51.660;19.338;2023-01-19T10:38:23;1.70;78.60
40952;DHT22;26682;51.660;19.338;2023-01-19T10:42:11;1.70;76.90
40952;DHT22;26682;51.660;19.338;2023-01-19T10:44:01;1.70;94.10
40952;DHT22;26682;51.660;19.338;2023-01-19T10:45:50;1.70;97.00
40952;DHT22;26682;51.660;19.338;2023-01-19T10:47:39;1.70;94.50
40952;DHT22;26682;51.660;19.338;2023-01-19T10:49:37;1.80;99.70
40952;DHT22;26682;51.660;19.338;2023-01-19T10:51:25;1.80;99.90
40952;DHT22;26682;51.660;19.338;2023-01-19T10:53:21;1.80;99.90
40952;DHT22;26682;51.660;19.338;2023-01-19T10:55:26;1.80;99.90
40952;DHT22;26682;51.660;19.338;2023-01-19T10:57:40;1.80;99.90
40952;DHT22;26682;51.660;19.338;2023-01-19T10:59:35;1.80;97.40
40952;DHT22;26682;51.660;19.338;2023-01-19T11:01:25;1.70;84.80
40952;DHT22;26682;51.660;19.338;2023-01-19T11:03:27;1.70;85.50
40952;DHT22;26682;51.660;19.338;2023-01-19T11:05:27;1.80;91.20
40952;DHT22;26682;51.660;19.338;2023-01-19T11:09:20;1.80;92.50
40952;DHT22;26682;51.660;19.338;2023-01-19T11:11:08;1.80;91.70
40952;DHT22;26682;51.660;19.338;2023-01-19T11:14:50;1.70;62.40
40952;DHT22;26682;51.660;19.338;2023-01-19T11:16:43;1.70;52.90
40952;DHT22;26682;51.660;19.338;2023-01-19T11:18:35;1.70;43.10
40952;DHT22;26682;51.660;19.338;2023-01-19T11:25:27;1.70;40.10
40952;DHT22;26682;51.660;19.338;2023-01-19T11:27:19;1.70;27.10
40952;DHT22;26682;51.660;19.338;2023-01-19T11:29:22;1.70;36.40
40952;DHT22;26682;51.660;19.338;2023-01-19T11:31:30;1.80;51.20
40952;DHT22;26682;51.660;19.338;2023-01-19T11:33:24;1.80;45.80
40952;DHT22;26682;51.660;19.338;2023-01-19T11:35:38;1.80;29.10
40952;DHT22;26682;51.660;19.338;2023-01-19T11:37:30;1.80;26.50
40952;DHT22;26682;51.660;19.338;2023-01-19T11:39:26;1.80;24.50
40952;DHT22;26682;51.660;19.338;2023-01-19T11:41:34;1.90;18.00
40952;DHT22;26682;51.660;19.338;2023-01-19T11:43:26;2.00;28.10
40952;DHT22;26682;51.660;19.338;2023-01-19T11:45:34;2.00;9.00
40952;DHT22;26682;51.660;19.338;2023-01-19T11:47:45;2.00;1.00
40952;DHT22;26682;51.660;19.338;2023-01-19T11:49:51;2.00;1.00
40952;DHT22;26682;51.660;19.338;2023-01-19T11:52:04;2.00;1.00
40952;DHT22;26682;51.660;19.338;2023-01-19T11:54:12;2.00;1.00
40952;DHT22;26682;51.660;19.338;2023-01-19T11:56:10;2.00;1.00
40952;DHT22;26682;51.660;19.338;2023-01-19T11:57:58;2.10;1.00
40952;DHT22;26682;51.660;19.338;2023-01-19T11:59:46;2.10;1.00
40952;DHT22;26682;51.660;19.338;2023-01-19T12:01:46;2.10;1.00
40952;DHT22;26682;51.660;19.338;2023-01-19T12:04:00;2.20;1.00
40952;DHT22;26682;51.660;19.338;2023-01-19T12:06:17;2.20;1.00
40952;DHT22;26682;51.660;19.338;2023-01-19T12:08:12;2.20;1.00
40952;DHT22;26682;51.660;19.338;2023-01-19T12:10:22;2.20;1.00
40952;DHT22;26682;51.660;19.338;2023-01-19T12:12:40;2.10;1.00
40952;DHT22;26682;51.660;19.338;2023-01-19T12:14:40;2.10;1.00